sensor_id;sensor_type;location;lat;lon;timestamp;temperature;humidity
7814;DHT22;3952;48.364;16.022;2022-11-20T00:00:27;1.40;99.90
7814;DHT22;3952;48.364;16.022;2022-11-20T00:02:54;1.40;99.90
7814;DHT22;3952;48.364;16.022;2022-11-20T00:05:21;1.50;99.90
7814;DHT22;3952;48.364;16.022;2022-11-20T00:07:49;1.40;99.90
7814;DHT22;3952;48.364;16.022;2022-11-20T00:10:17;1.50;99.90
7814;DHT22;3952;48.364;16.022;2022-11-20T00:12:44;1.50;99.90
7814;DHT22;3952;48.364;16.022;2022-11-20T00:15:12;1.50;99.90
7814;DHT22;3952;48.364;16.022;2022-11-20T00:17:40;1.60;99.90
7814;DHT22;3952;48.364;16.022;2022-11-20T00:20:09;1.60;99.90
7814;DHT22;3952;48.364;16.022;2022-11-20T00:22:36;1.60;99.90
7814;DHT22;3952;48.364;16.022;2022-11-20T00:25:04;1.60;99.90
7814;DHT22;3952;48.364;16.022;2022-11-20T00:27:31;1.60;99.90
7814;DHT22;3952;48.364;16.022;2022-11-20T00:29:59;1.60;99.90
7814;DHT22;3952;48.364;16.022;2022-11-20T00:32:27;1.60;99.90
7814;DHT22;3952;48.364;16.022;2022-11-20T00:34:55;1.60;99.90
7814;DHT22;3952;48.364;16.022;2022-11-20T00:37:22;1.60;99.90
7814;DHT22;3952;48.364;16.022;2022-11-20T00:39:49;1.60;99.90
7814;DHT22;3952;48.364;16.022;2022-11-20T00:42:16;1.60;99.90
7814;DHT22;3952;48.364;16.022;2022-11-20T00:44:43;1.60;99.90
7814;DHT22;3952;48.364;16.022;2022-11-20T00:47:11;1.60;99.90
7814;DHT22;3952;48.364;16.022;2022-11-20T00:49:40;1.70;99.90
7814;DHT22;3952;48.364;16.022;2022-11-20T00:52:07;1.60;99.90
7814;DHT22;3952;48.364;16.022;2022-11-20T00:54:34;1.60;99.90
7814;DHT22;3952;48.364;16.022;2022-11-20T00:57:01;1.60;99.90
7814;DHT22;3952;48.364;16.022;2022-11-20T00:59:29;1.60;99.90
7814;DHT22;3952;48.364;16.022;2022-11-20T01:01:56;1.60;99.90
7814;DHT22;3952;48.364;16.022;2022-11-20T01:04:23;1.60;99.90
7814;DHT22;3952;48.364;16.022;2022-11-20T01:06:52;1.50;99.90
7814;DHT22;3952;48.364;16.022;2022-11-20T01:09:19;1.50;99.90
7814;DHT22;3952;48.364;16.022;2022-11-20T01:11:46;1.50;99.90
7814;DHT22;3952;48.364;16.022;2022-11-20T01:14:15;1.50;99.90
7814;DHT22;3952;48.364;16.022;2022-11-20T01:16:44;1.40;99.90
7814;DHT22;3952;48.364;16.022;2022-11-20T01:19:14;1.40;99.90
7814;DHT22;3952;48.364;16.022;2022-11-20T01:21:43;1.40;99.90
7814;DHT22;3952;48.364;16.022;2022-11-20T01:24:13;1.40;99.90
7814;DHT22;3952;48.364;16.022;2022-11-20T01:26:42;1.40;99.90
7814;DHT22;3952;48.364;16.022;2022-11-20T01:29:14;1.40;99.90
7814;DHT22;3952;48.364;16.022;2022-11-20T01:31:41;1.40;99.90
7814;DHT22;3952;48.364;16.022;2022-11-20T01:34:11;1.40;99.90
7814;DHT22;3952;48.364;16.022;2022-11-20T01:36:40;1.40;99.90
7814;DHT22;3952;48.364;16.022;2022-11-20T01:39:12;1.40;99.90
7814;DHT22;3952;48.364;16.022;2022-11-20T01:41:41;1.40;99.90
7814;DHT22;3952;48.364;16.022;2022-11-20T01:44:47;1.40;99.90
7814;DHT22;3952;48.364;16.022;2022-11-20T01:47:18;1.50;99.90
7814;DHT22;3952;48.364;16.022;2022-11-20T01:49:51;1.50;99.90
7814;DHT22;3952;48.364;16.022;2022-11-20T01:52:24;1.50;99.90
7814;DHT22;3952;48.364;16.022;2022-11-20T01:54:57;1.50;99.90
7814;DHT22;3952;48.364;16.022;2022-11-20T01:57:28;1.50;99.90
7814;DHT22;3952;48.364;16.022;2022-11-20T02:00:00;1.50;99.90
7814;DHT22;3952;48.364;16.022;2022-11-20T02:02:28;1.50;99.90
7814;DHT22;3952;48.364;16.022;2022-11-20T02:05:03;1.50;99.90
7814;DHT22;3952;48.364;16.022;2022-11-20T02:07:31;1.50;99.90
7814;DHT22;3952;48.364;16.022;2022-11-20T02:10:01;1.50;99.90
7814;DHT22;3952;48.364;16.022;2022-11-20T02:12:28;1.50;99.90
7814;DHT22;3952;48.364;16.022;2022-11-20T02:15:13;1.50;99.90
7814;DHT22;3952;48.364;16.022;2022-11-20T02:17:40;1.50;99.90
7814;DHT22;3952;48.364;16.022;2022-11-20T02:20:08;1.50;99.90
7814;DHT22;3952;48.364;16.022;2022-11-20T02:22:40;1.50;99.90
7814;DHT22;3952;48.364;16.022;2022-11-20T02:25:11;1.50;99.90
7814;DHT22;3952;48.364;16.022;2022-11-20T02:27:39;1.50;99.90
7814;DHT22;3952;48.364;16.022;2022-11-20T02:30:08;1.40;99.90
7814;DHT22;3952;48.364;16.022;2022-11-20T02:32:38;1.40;99.90
7814;DHT22;3952;48.364;16.022;2022-11-20T02:35:10;1.40;99.90
7814;DHT22;3952;48.364;16.022;2022-11-20T02:37:59;1.40;99.90
7814;DHT22;3952;48.364;16.022;2022-11-20T02:40:29;1.50;99.90
7814;DHT22;3952;48.364;16.022;2022-11-20T02:42:57;1.50;99.90
7814;DHT22;3952;48.364;16.022;2022-11-20T02:45:25;1.50;99.90
7814;DHT22;3952;48.364;16.022;2022-11-20T02:47:52;1.50;99.90
7814;DHT22;3952;48.364;16.022;2022-11-20T02:50:20;1.40;99.90
7814;DHT22;3952;48.364;16.022;2022-11-20T02:52:47;1.50;99.90
7814;DHT22;3952;48.364;16.022;2022-11-20T02:55:15;1.50;99.90
7814;DHT22;3952;48.364;16.022;2022-11-20T02:57:43;1.50;99.90
7814;DHT22;3952;48.364;16.022;2022-11-20T03:00:12;1.50;99.90
7814;DHT22;3952;48.364;16.022;2022-11-20T03:02:39;1.60;99.90
7814;DHT22;3952;48.364;16.022;2022-11-20T03:05:07;1.60;99.90
7814;DHT22;3952;48.364;16.022;2022-11-20T03:07:34;1.60;99.90
7814;DHT22;3952;48.364;16.022;2022-11-20T03:10:02;1.60;99.90
7814;DHT22;3952;48.364;16.022;2022-11-20T03:12:29;1.60;99.90
7814;DHT22;3952;48.364;16.022;2022-11-20T03:14:58;1.60;99.90
7814;DHT22;3952;48.364;16.022;2022-11-20T03:17:25;1.60;99.90
7814;DHT22;3952;48.364;16.022;2022-11-20T03:19:52;1.50;99.90
7814;DHT22;3952;48.364;16.022;2022-11-20T03:22:19;1.50;99.90
7814;DHT22;3952;48.364;16.022;2022-11-20T03:24:47;1.50;99.90
7814;DHT22;3952;48.364;16.022;2022-11-20T03:27:14;1.50;99.90
7814;DHT22;3952;48.364;16.022;2022-11-20T03:29:42;1.40;99.90
7814;DHT22;3952;48.364;16.022;2022-11-20T03:32:11;1.40;99.90
7814;DHT22;3952;48.364;16.022;2022-11-20T03:34:38;1.50;99.90
7814;DHT22;3952;48.364;16.022;2022-11-20T03:37:05;1.50;99.90
7814;DHT22;3952;48.364;16.022;2022-11-20T03:39:33;1.60;99.90
7814;DHT22;3952;48.364;16.022;2022-11-20T03:42:00;1.50;99.90
7814;DHT22;3952;48.364;16.022;2022-11-20T03:44:27;1.50;99.90
7814;DHT22;3952;48.364;16.022;2022-11-20T03:46:54;1.50;99.90
7814;DHT22;3952;48.364;16.022;2022-11-20T03:49:23;1.50;99.90
7814;DHT22;3952;48.364;16.022;2022-11-20T03:51:51;1.50;99.90
7814;DHT22;3952;48.364;16.022;2022-11-20T03:54:18;1.60;99.90
7814;DHT22;3952;48.364;16.022;2022-11-20T03:56:45;1.60;99.90
7814;DHT22;3952;48.364;16.022;2022-11-20T03:59:13;1.60;99.90
7814;DHT22;3952;48.364;16.022;2022-11-20T04:01:40;1.60;99.90
7814;DHT22;3952;48.364;16.022;2022-11-20T04:04:07;1.60;99.90
7814;DHT22;3952;48.364;16.022;2022-11-20T04:06:37;1.60;99.90
7814;DHT22;3952;48.364;16.022;2022-11-20T04:09:06;1.60;99.90
7814;DHT22;3952;48.364;16.022;2022-11-20T04:11:35;1.60;99.90
7814;DHT22;3952;48.364;16.022;2022-11-20T04:14:04;1.60;99.90
7814;DHT22;3952;48.364;16.022;2022-11-20T04:16:33;1.70;99.90
7814;DHT22;3952;48.364;16.022;2022-11-20T04:19:03;1.70;99.90
7814;DHT22;3952;48.364;16.022;2022-11-20T04:21:30;1.60;99.90
7814;DHT22;3952;48.364;16.022;2022-11-20T04:23:59;1.60;99.90
7814;DHT22;3952;48.364;16.022;2022-11-20T04:26:28;1.70;99.90
7814;DHT22;3952;48.364;16.022;2022-11-20T04:28:56;1.70;99.90
7814;DHT22;3952;48.364;16.022;2022-11-20T04:31:25;1.70;99.90
7814;DHT22;3952;48.364;16.022;2022-11-20T04:33:53;1.70;99.90
7814;DHT22;3952;48.364;16.022;2022-11-20T04:36:22;1.70;99.90
7814;DHT22;3952;48.364;16.022;2022-11-20T04:38:51;1.70;99.90
7814;DHT22;3952;48.364;16.022;2022-11-20T04:41:22;1.70;99.90
7814;DHT22;3952;48.364;16.022;2022-11-20T04:43:51;1.70;99.90
7814;DHT22;3952;48.364;16.022;2022-11-20T04:46:20;1.70;99.90
7814;DHT22;3952;48.364;16.022;2022-11-20T04:48:48;1.70;99.90
7814;DHT22;3952;48.364;16.022;2022-11-20T04:51:15;1.70;99.90
7814;DHT22;3952;48.364;16.022;2022-11-20T04:53:42;1.70;99.90
7814;DHT22;3952;48.364;16.022;2022-11-20T04:56:11;1.70;99.90
7814;DHT22;3952;48.364;16.022;2022-11-20T04:58:40;1.70;99.90
7814;DHT22;3952;48.364;16.022;2022-11-20T05:01:11;1.70;99.90
7814;DHT22;3952;48.364;16.022;2022-11-20T05:03:38;1.60;99.90
7814;DHT22;3952;48.364;16.022;2022-11-20T05:06:06;1.60;99.90
7814;DHT22;3952;48.364;16.022;2022-11-20T05:08:34;1.50;99.90
7814;DHT22;3952;48.364;16.022;2022-11-20T05:11:02;1.50;99.90
7814;DHT22;3952;48.364;16.022;2022-11-20T05:13:30;1.50;99.90
7814;DHT22;3952;48.364;16.022;2022-11-20T05:16:03;1.50;99.90
7814;DHT22;3952;48.364;16.022;2022-11-20T05:18:31;1.50;99.90
7814;DHT22;3952;48.364;16.022;2022-11-20T05:20:58;1.50;99.90
7814;DHT22;3952;48.364;16.022;2022-11-20T05:23:26;1.40;99.90
7814;DHT22;3952;48.364;16.022;2022-11-20T05:25:54;1.50;99.90
7814;DHT22;3952;48.364;16.022;2022-11-20T05:28:22;1.40;99.90
7814;DHT22;3952;48.364;16.022;2022-11-20T05:30:50;1.50;99.90
7814;DHT22;3952;48.364;16.022;2022-11-20T05:33:19;1.50;99.90
7814;DHT22;3952;48.364;16.022;2022-11-20T05:35:47;1.50;99.90
7814;DHT22;3952;48.364;16.022;2022-11-20T05:38:15;1.50;99.90
7814;DHT22;3952;48.364;16.022;2022-11-20T05:40:42;1.50;99.90
7814;DHT22;3952;48.364;16.022;2022-11-20T05:43:10;1.50;99.90
7814;DHT22;3952;48.364;16.022;2022-11-20T05:45:37;1.50;99.90
7814;DHT22;3952;48.364;16.022;2022-11-20T05:48:04;1.50;99.90
7814;DHT22;3952;48.364;16.022;2022-11-20T05:50:33;1.50;99.90
7814;DHT22;3952;48.364;16.022;2022-11-20T05:53:01;1.60;99.90
7814;DHT22;3952;48.364;16.022;2022-11-20T05:55:28;1.60;99.90
7814;DHT22;3952;48.364;16.022;2022-11-20T05:57:55;1.60;99.90
7814;DHT22;3952;48.364;16.022;2022-11-20T06:00:23;1.60;99.90
7814;DHT22;3952;48.364;16.022;2022-11-20T06:02:50;1.60;99.90
7814;DHT22;3952;48.364;16.022;2022-11-20T06:05:17;1.60;99.90
7814;DHT22;3952;48.364;16.022;2022-11-20T06:07:46;1.60;99.90
7814;DHT22;3952;48.364;16.022;2022-11-20T06:10:13;1.60;99.90
7814;DHT22;3952;48.364;16.022;2022-11-20T06:12:40;1.60;99.90
7814;DHT22;3952;48.364;16.022;2022-11-20T06:15:09;1.60;99.90
7814;DHT22;3952;48.364;16.022;2022-11-20T06:17:36;1.60;99.90
7814;DHT22;3952;48.364;16.022;2022-11-20T06:20:04;1.50;99.90
7814;DHT22;3952;48.364;16.022;2022-11-20T06:22:32;1.50;99.90
7814;DHT22;3952;48.364;16.022;2022-11-20T06:25:01;1.50;99.90
7814;DHT22;3952;48.364;16.022;2022-11-20T06:27:28;1.60;99.90
7814;DHT22;3952;48.364;16.022;2022-11-20T06:29:55;1.50;99.90
7814;DHT22;3952;48.364;16.022;2022-11-20T06:32:23;1.50;99.90
7814;DHT22;3952;48.364;16.022;2022-11-20T06:34:50;1.50;99.90
7814;DHT22;3952;48.364;16.022;2022-11-20T06:37:17;1.50;99.90
7814;DHT22;3952;48.364;16.022;2022-11-20T06:39:44;1.60;99.90
7814;DHT22;3952;48.364;16.022;2022-11-20T06:42:13;1.60;99.90
7814;DHT22;3952;48.364;16.022;2022-11-20T06:44:40;1.70;99.90
7814;DHT22;3952;48.364;16.022;2022-11-20T06:47:07;1.70;99.90
7814;DHT22;3952;48.364;16.022;2022-11-20T06:49:35;2.70;99.90
7814;DHT22;3952;48.364;16.022;2022-11-20T06:52:04;1.70;99.90
7814;DHT22;3952;48.364;16.022;2022-11-20T06:54:31;1.70;99.90
7814;DHT22;3952;48.364;16.022;2022-11-20T06:56:59;1.80;99.90
7814;DHT22;3952;48.364;16.022;2022-11-20T06:59:27;1.80;99.90
7814;DHT22;3952;48.364;16.022;2022-11-20T07:01:54;1.80;99.90
7814;DHT22;3952;48.364;16.022;2022-11-20T07:04:22;1.80;99.90
7814;DHT22;3952;48.364;16.022;2022-11-20T07:06:49;1.80;99.90
7814;DHT22;3952;48.364;16.022;2022-11-20T07:09:16;1.80;99.90
7814;DHT22;3952;48.364;16.022;2022-11-20T07:11:43;1.70;99.90
7814;DHT22;3952;48.364;16.022;2022-11-20T07:14:11;1.70;99.90
7814;DHT22;3952;48.364;16.022;2022-11-20T07:16:40;1.70;99.90
7814;DHT22;3952;48.364;16.022;2022-11-20T07:19:07;1.80;99.90
7814;DHT22;3952;48.364;16.022;2022-11-20T07:21:34;1.80;99.90
7814;DHT22;3952;48.364;16.022;2022-11-20T07:24:02;1.80;99.90
7814;DHT22;3952;48.364;16.022;2022-11-20T07:26:30;1.90;99.90
7814;DHT22;3952;48.364;16.022;2022-11-20T07:28:57;1.90;99.90
7814;DHT22;3952;48.364;16.022;2022-11-20T07:31:24;1.90;99.90
7814;DHT22;3952;48.364;16.022;2022-11-20T07:33:53;1.90;99.90
7814;DHT22;3952;48.364;16.022;2022-11-20T07:36:20;1.90;99.90
7814;DHT22;3952;48.364;16.022;2022-11-20T07:38:47;2.00;99.90
7814;DHT22;3952;48.364;16.022;2022-11-20T07:41:15;2.00;99.90
7814;DHT22;3952;48.364;16.022;2022-11-20T07:43:42;2.00;99.90
7814;DHT22;3952;48.364;16.022;2022-11-20T07:46:09;2.00;99.90
7814;DHT22;3952;48.364;16.022;2022-11-20T07:48:36;2.00;99.90
7814;DHT22;3952;48.364;16.022;2022-11-20T07:51:05;2.00;99.90
7814;DHT22;3952;48.364;16.022;2022-11-20T07:53:33;2.00;99.90
7814;DHT22;3952;48.364;16.022;2022-11-20T07:56:00;2.00;99.90
7814;DHT22;3952;48.364;16.022;2022-11-20T07:58:29;2.10;99.90
7814;DHT22;3952;48.364;16.022;2022-11-20T08:01:01;2.10;99.90
7814;DHT22;3952;48.364;16.022;2022-11-20T08:03:29;2.10;99.90
7814;DHT22;3952;48.364;16.022;2022-11-20T08:05:58;2.00;99.90
7814;DHT22;3952;48.364;16.022;2022-11-20T08:08:28;2.00;99.90
7814;DHT22;3952;48.364;16.022;2022-11-20T08:10:57;2.00;99.90
7814;DHT22;3952;48.364;16.022;2022-11-20T08:13:45;2.00;99.90
7814;DHT22;3952;48.364;16.022;2022-11-20T08:16:30;2.00;99.90
7814;DHT22;3952;48.364;16.022;2022-11-20T08:18:57;2.00;99.90
7814;DHT22;3952;48.364;16.022;2022-11-20T08:21:24;1.90;99.90
7814;DHT22;3952;48.364;16.022;2022-11-20T08:23:53;1.90;99.90
7814;DHT22;3952;48.364;16.022;2022-11-20T08:26:21;1.80;99.90
7814;DHT22;3952;48.364;16.022;2022-11-20T08:28:49;1.80;99.90
7814;DHT22;3952;48.364;16.022;2022-11-20T08:31:16;1.80;99.90
7814;DHT22;3952;48.364;16.022;2022-11-20T08:33:43;1.80;99.90
7814;DHT22;3952;48.364;16.022;2022-11-20T08:36:11;1.80;99.90
7814;DHT22;3952;48.364;16.022;2022-11-20T08:38:38;1.90;99.90
7814;DHT22;3952;48.364;16.022;2022-11-20T08:41:07;1.90;99.90
7814;DHT22;3952;48.364;16.022;2022-11-20T08:43:56;1.80;99.90
7814;DHT22;3952;48.364;16.022;2022-11-20T08:46:25;1.80;99.90
7814;DHT22;3952;48.364;16.022;2022-11-20T08:48:53;1.80;99.90
7814;DHT22;3952;48.364;16.022;2022-11-20T08:51:20;1.80;99.90
7814;DHT22;3952;48.364;16.022;2022-11-20T08:53:47;1.80;99.90
7814;DHT22;3952;48.364;16.022;2022-11-20T08:56:17;1.70;99.90
7814;DHT22;3952;48.364;16.022;2022-11-20T08:58:44;1.70;99.90
7814;DHT22;3952;48.364;16.022;2022-11-20T09:01:11;1.70;99.90
7814;DHT22;3952;48.364;16.022;2022-11-20T09:03:38;1.70;99.90
7814;DHT22;3952;48.364;16.022;2022-11-20T09:06:07;1.70;99.90
7814;DHT22;3952;48.364;16.022;2022-11-20T09:08:34;1.80;99.90
7814;DHT22;3952;48.364;16.022;2022-11-20T09:11:03;1.80;99.90
7814;DHT22;3952;48.364;16.022;2022-11-20T09:13:33;1.90;99.90
7814;DHT22;3952;48.364;16.022;2022-11-20T09:16:02;1.90;99.90
7814;DHT22;3952;48.364;16.022;2022-11-20T09:18:30;1.90;99.90
7814;DHT22;3952;48.364;16.022;2022-11-20T09:20:58;1.80;99.90
7814;DHT22;3952;48.364;16.022;2022-11-20T09:23:26;1.90;99.90
7814;DHT22;3952;48.364;16.022;2022-11-20T09:25:54;1.90;99.90
7814;DHT22;3952;48.364;16.022;2022-11-20T09:28:25;1.90;99.90
7814;DHT22;3952;48.364;16.022;2022-11-20T09:30:54;1.90;99.90
7814;DHT22;3952;48.364;16.022;2022-11-20T09:33:21;2.00;99.90
7814;DHT22;3952;48.364;16.022;2022-11-20T09:35:48;2.00;99.90
7814;DHT22;3952;48.364;16.022;2022-11-20T09:38:15;2.10;99.90
7814;DHT22;3952;48.364;16.022;2022-11-20T09:40:47;2.20;99.90
7814;DHT22;3952;48.364;16.022;2022-11-20T09:43:18;2.30;99.90
7814;DHT22;3952;48.364;16.022;2022-11-20T09:46:00;2.30;99.90
7814;DHT22;3952;48.364;16.022;2022-11-20T09:48:55;2.30;99.90
7814;DHT22;3952;48.364;16.022;2022-11-20T09:51:34;2.40;99.90
7814;DHT22;3952;48.364;16.022;2022-11-20T09:54:14;2.50;99.90
7814;DHT22;3952;48.364;16.022;2022-11-20T09:56:45;2.50;99.90
7814;DHT22;3952;48.364;16.022;2022-11-20T09:59:32;2.50;99.90
7814;DHT22;3952;48.364;16.022;2022-11-20T10:02:08;2.60;99.90
7814;DHT22;3952;48.364;16.022;2022-11-20T10:04:44;2.60;99.90
7814;DHT22;3952;48.364;16.022;2022-11-20T10:07:16;2.60;99.90
7814;DHT22;3952;48.364;16.022;2022-11-20T10:09:54;2.60;99.90
7814;DHT22;3952;48.364;16.022;2022-11-20T10:12:27;2.70;99.90
7814;DHT22;3952;48.364;16.022;2022-11-20T10:15:10;2.70;99.90
7814;DHT22;3952;48.364;16.022;2022-11-20T10:17:57;2.80;99.90
7814;DHT22;3952;48.364;16.022;2022-11-20T10:20:32;2.90;99.90
7814;DHT22;3952;48.364;16.022;2022-11-20T10:23:24;2.90;99.90
7814;DHT22;3952;48.364;16.022;2022-11-20T10:26:01;2.90;99.90
7814;DHT22;3952;48.364;16.022;2022-11-20T10:28:40;2.90;99.90
7814;DHT22;3952;48.364;16.022;2022-11-20T10:34:00;2.80;99.90
7814;DHT22;3952;48.364;16.022;2022-11-20T10:36:33;2.80;99.90
7814;DHT22;3952;48.364;16.022;2022-11-20T10:39:06;2.70;99.90
7814;DHT22;3952;48.364;16.022;2022-11-20T10:41:41;2.70;99.90
7814;DHT22;3952;48.364;16.022;2022-11-20T10:44:17;2.80;99.90
7814;DHT22;3952;48.364;16.022;2022-11-20T10:47:13;2.80;99.90
7814;DHT22;3952;48.364;16.022;2022-11-20T10:49:44;2.80;99.90
7814;DHT22;3952;48.364;16.022;2022-11-20T10:52:19;2.80;99.90
7814;DHT22;3952;48.364;16.022;2022-11-20T10:54:56;2.90;99.90
7814;DHT22;3952;48.364;16.022;2022-11-20T10:57:34;2.90;99.90
7814;DHT22;3952;48.364;16.022;2022-11-20T11:00:05;3.00;99.90
7814;DHT22;3952;48.364;16.022;2022-11-20T11:02:35;3.00;99.90
7814;DHT22;3952;48.364;16.022;2022-11-20T11:05:16;3.00;99.90
7814;DHT22;3952;48.364;16.022;2022-11-20T11:07:45;3.00;99.90
7814;DHT22;3952;48.364;16.022;2022-11-20T11:10:17;3.10;99.90
7814;DHT22;3952;48.364;16.022;2022-11-20T11:12:45;3.10;99.90
7814;DHT22;3952;48.364;16.022;2022-11-20T11:15:24;3.10;99.90
7814;DHT22;3952;48.364;16.022;2022-11-20T11:17:52;3.00;99.90
7814;DHT22;3952;48.364;16.022;2022-11-20T11:20:22;3.00;99.90
7814;DHT22;3952;48.364;16.022;2022-11-20T11:22:51;3.10;99.90
7814;DHT22;3952;48.364;16.022;2022-11-20T11:25:25;3.10;99.90
7814;DHT22;3952;48.364;16.022;2022-11-20T11:27:54;3.20;99.90
7814;DHT22;3952;48.364;16.022;2022-11-20T11:30:24;3.20;99.90
7814;DHT22;3952;48.364;16.022;2022-11-20T11:33:03;3.20;99.90
7814;DHT22;3952;48.364;16.022;2022-11-20T11:35:33;3.30;99.90
7814;DHT22;3952;48.364;16.022;2022-11-20T11:38:05;3.40;99.90
7814;DHT22;3952;48.364;16.022;2022-11-20T11:40:35;3.50;99.90
7814;DHT22;3952;48.364;16.022;2022-11-20T11:43:06;3.60;99.90
7814;DHT22;3952;48.364;16.022;2022-11-20T11:45:55;3.70;99.90
7814;DHT22;3952;48.364;16.022;2022-11-20T11:48:22;3.80;99.90
7814;DHT22;3952;48.364;16.022;2022-11-20T11:50:51;3.90;99.90
7814;DHT22;3952;48.364;16.022;2022-11-20T11:53:21;4.10;99.90
7814;DHT22;3952;48.364;16.022;2022-11-20T11:55:55;4.20;99.90
7814;DHT22;3952;48.364;16.022;2022-11-20T11:58:39;4.30;99.90
7814;DHT22;3952;48.364;16.022;2022-11-20T12:01:17;4.40;99.90
7814;DHT22;3952;48.364;16.022;2022-11-20T12:03:55;4.40;99.90
7814;DHT22;3952;48.364;16.022;2022-11-20T12:06:28;4.40;99.90
7814;DHT22;3952;48.364;16.022;2022-11-20T12:09:01;4.40;99.90
7814;DHT22;3952;48.364;16.022;2022-11-20T12:11:33;4.40;99.90
7814;DHT22;3952;48.364;16.022;2022-11-20T12:14:11;4.40;99.90
7814;DHT22;3952;48.364;16.022;2022-11-20T12:16:40;4.40;99.90
7814;DHT22;3952;48.364;16.022;2022-11-20T12:19:10;4.50;99.90
7814;DHT22;3952;48.364;16.022;2022-11-20T12:21:49;4.50;99.90
7814;DHT22;3952;48.364;16.022;2022-11-20T12:24:38;4.60;99.90
7814;DHT22;3952;48.364;16.022;2022-11-20T12:30:31;4.70;99.90
7814;DHT22;3952;48.364;16.022;2022-11-20T12:33:10;4.80;99.90
7814;DHT22;3952;48.364;16.022;2022-11-20T12:35:50;4.80;99.90
7814;DHT22;3952;48.364;16.022;2022-11-20T12:41:47;4.90;99.90
7814;DHT22;3952;48.364;16.022;2022-11-20T12:51:17;4.80;99.90
7814;DHT22;3952;48.364;16.022;2022-11-20T12:53:55;4.80;99.90
7814;DHT22;3952;48.364;16.022;2022-11-20T12:56:34;4.80;99.90
7814;DHT22;3952;48.364;16.022;2022-11-20T12:59:21;4.80;99.90
7814;DHT22;3952;48.364;16.022;2022-11-20T13:01:55;4.80;99.90
7814;DHT22;3952;48.364;16.022;2022-11-20T13:04:41;4.80;99.90
7814;DHT22;3952;48.364;16.022;2022-11-20T13:07:12;4.80;99.90
7814;DHT22;3952;48.364;16.022;2022-11-20T13:09:44;4.70;99.90
7814;DHT22;3952;48.364;16.022;2022-11-20T13:12:16;4.70;99.90
7814;DHT22;3952;48.364;16.022;2022-11-20T13:14:50;4.70;99.90
7814;DHT22;3952;48.364;16.022;2022-11-20T13:17:24;4.70;99.90
7814;DHT22;3952;48.364;16.022;2022-11-20T13:19:54;4.70;99.90
7814;DHT22;3952;48.364;16.022;2022-11-20T13:22:25;4.70;99.90
7814;DHT22;3952;48.364;16.022;2022-11-20T13:24:55;5.30;99.90
7814;DHT22;3952;48.364;16.022;2022-11-20T13:27:23;4.70;99.90
7814;DHT22;3952;48.364;16.022;2022-11-20T13:30:10;4.70;99.90
7814;DHT22;3952;48.364;16.022;2022-11-20T13:32:49;4.70;99.90
7814;DHT22;3952;48.364;16.022;2022-11-20T13:35:28;4.70;99.90
7814;DHT22;3952;48.364;16.022;2022-11-20T13:38:05;4.80;99.90
7814;DHT22;3952;48.364;16.022;2022-11-20T13:40:37;4.60;99.90
7814;DHT22;3952;48.364;16.022;2022-11-20T13:43:15;4.80;99.90
7814;DHT22;3952;48.364;16.022;2022-11-20T13:45:54;4.80;99.90
7814;DHT22;3952;48.364;16.022;2022-11-20T13:48:24;4.80;99.90
7814;DHT22;3952;48.364;16.022;2022-11-20T13:51:00;4.80;99.90
7814;DHT22;3952;48.364;16.022;2022-11-20T13:56:27;4.80;99.90
7814;DHT22;3952;48.364;16.022;2022-11-20T13:59:04;4.90;99.90
7814;DHT22;3952;48.364;16.022;2022-11-20T14:01:34;4.90;99.90
7814;DHT22;3952;48.364;16.022;2022-11-20T14:04:06;5.00;99.90
7814;DHT22;3952;48.364;16.022;2022-11-20T14:06:42;5.00;99.90
7814;DHT22;3952;48.364;16.022;2022-11-20T14:09:11;5.00;99.90
7814;DHT22;3952;48.364;16.022;2022-11-20T14:11:47;5.10;99.90
7814;DHT22;3952;48.364;16.022;2022-11-20T14:14:16;5.10;99.90
7814;DHT22;3952;48.364;16.022;2022-11-20T14:16:44;5.20;99.90
7814;DHT22;3952;48.364;16.022;2022-11-20T14:19:26;5.20;99.90
7814;DHT22;3952;48.364;16.022;2022-11-20T14:22:08;5.20;99.90
7814;DHT22;3952;48.364;16.022;2022-11-20T14:24:36;5.10;99.90
7814;DHT22;3952;48.364;16.022;2022-11-20T14:27:09;5.20;99.90
7814;DHT22;3952;48.364;16.022;2022-11-20T14:29:38;5.10;99.90
7814;DHT22;3952;48.364;16.022;2022-11-20T14:32:06;5.10;99.90
7814;DHT22;3952;48.364;16.022;2022-11-20T14:34:38;5.10;99.90
7814;DHT22;3952;48.364;16.022;2022-11-20T14:37:11;5.10;99.90
7814;DHT22;3952;48.364;16.022;2022-11-20T14:39:42;5.00;99.90
7814;DHT22;3952;48.364;16.022;2022-11-20T14:42:19;5.10;99.90
7814;DHT22;3952;48.364;16.022;2022-11-20T14:44:48;5.10;99.90
7814;DHT22;3952;48.364;16.022;2022-11-20T14:47:25;5.00;99.90
7814;DHT22;3952;48.364;16.022;2022-11-20T14:49:54;4.90;99.90
7814;DHT22;3952;48.364;16.022;2022-11-20T14:52:23;4.90;99.90
7814;DHT22;3952;48.364;16.022;2022-11-20T14:54:52;4.90;99.90
7814;DHT22;3952;48.364;16.022;2022-11-20T14:57:26;4.90;99.90
7814;DHT22;3952;48.364;16.022;2022-11-20T15:00:08;4.90;99.90
7814;DHT22;3952;48.364;16.022;2022-11-20T15:02:45;4.90;99.90
7814;DHT22;3952;48.364;16.022;2022-11-20T15:05:14;4.90;99.90
7814;DHT22;3952;48.364;16.022;2022-11-20T15:07:43;4.90;99.90
7814;DHT22;3952;48.364;16.022;2022-11-20T15:10:19;4.90;99.90
7814;DHT22;3952;48.364;16.022;2022-11-20T15:12:50;4.80;99.90
7814;DHT22;3952;48.364;16.022;2022-11-20T15:15:21;4.80;99.90
7814;DHT22;3952;48.364;16.022;2022-11-20T15:17:50;4.70;99.90
7814;DHT22;3952;48.364;16.022;2022-11-20T15:20:18;4.60;99.90
7814;DHT22;3952;48.364;16.022;2022-11-20T15:22:45;4.60;99.90
7814;DHT22;3952;48.364;16.022;2022-11-20T15:25:14;4.60;99.90
7814;DHT22;3952;48.364;16.022;2022-11-20T15:27:41;4.50;99.90
7814;DHT22;3952;48.364;16.022;2022-11-20T15:30:16;4.50;99.90
7814;DHT22;3952;48.364;16.022;2022-11-20T15:32:44;4.50;99.90
7814;DHT22;3952;48.364;16.022;2022-11-20T15:35:12;4.40;99.90
7814;DHT22;3952;48.364;16.022;2022-11-20T15:37:40;4.40;99.90
7814;DHT22;3952;48.364;16.022;2022-11-20T15:46:54;4.40;99.90
7814;DHT22;3952;48.364;16.022;2022-11-20T15:49:21;4.40;99.90
7814;DHT22;3952;48.364;16.022;2022-11-20T15:51:50;4.30;99.90
7814;DHT22;3952;48.364;16.022;2022-11-20T15:54:20;4.30;99.90
7814;DHT22;3952;48.364;16.022;2022-11-20T15:56:48;4.20;99.90
7814;DHT22;3952;48.364;16.022;2022-11-20T15:59:17;4.10;99.90
7814;DHT22;3952;48.364;16.022;2022-11-20T16:01:45;4.10;99.90
7814;DHT22;3952;48.364;16.022;2022-11-20T16:04:15;4.10;99.90
7814;DHT22;3952;48.364;16.022;2022-11-20T16:06:42;4.10;99.90
7814;DHT22;3952;48.364;16.022;2022-11-20T16:09:10;4.10;99.90
7814;DHT22;3952;48.364;16.022;2022-11-20T16:11:37;4.00;99.90
7814;DHT22;3952;48.364;16.022;2022-11-20T16:14:05;3.90;99.90
7814;DHT22;3952;48.364;16.022;2022-11-20T16:16:49;3.90;99.90
7814;DHT22;3952;48.364;16.022;2022-11-20T16:19:18;3.90;99.90
7814;DHT22;3952;48.364;16.022;2022-11-20T16:21:45;3.90;99.90
7814;DHT22;3952;48.364;16.022;2022-11-20T16:24:14;3.80;99.90
7814;DHT22;3952;48.364;16.022;2022-11-20T16:26:41;3.80;99.90
7814;DHT22;3952;48.364;16.022;2022-11-20T16:29:09;3.80;99.90
7814;DHT22;3952;48.364;16.022;2022-11-20T16:31:37;3.80;99.90
7814;DHT22;3952;48.364;16.022;2022-11-20T16:34:06;3.80;99.90
7814;DHT22;3952;48.364;16.022;2022-11-20T16:36:35;3.80;99.90
7814;DHT22;3952;48.364;16.022;2022-11-20T16:39:03;3.80;99.90
7814;DHT22;3952;48.364;16.022;2022-11-20T16:41:33;3.80;99.90
7814;DHT22;3952;48.364;16.022;2022-11-20T16:44:02;3.80;99.90
7814;DHT22;3952;48.364;16.022;2022-11-20T16:46:32;3.80;99.90
7814;DHT22;3952;48.364;16.022;2022-11-20T16:49:01;3.80;99.90